createdAt,value
2022-09-23T00:02:22.239Z,75.06
2022-09-23T00:04:48.527Z,75.33
2022-09-23T00:07:14.871Z,75.54
2022-09-23T00:09:41.235Z,75.95
2022-09-23T00:12:09.222Z,76.35
2022-09-23T00:14:33.893Z,76.72
2022-09-23T00:17:00.371Z,77.10
2022-09-23T00:19:26.558Z,77.33
2022-09-23T00:21:52.873Z,77.55
2022-09-23T00:24:19.243Z,77.84
2022-09-23T00:26:45.583Z,77.99
2022-09-23T00:29:11.915Z,78.25
2022-09-23T00:31:38.273Z,78.46
2022-09-23T00:34:04.589Z,78.51
2022-09-23T00:36:30.930Z,78.54
2022-09-23T00:38:57.273Z,78.79
2022-09-23T00:41:23.595Z,79.07
2022-09-23T00:43:49.968Z,79.20
2022-09-23T00:46:16.357Z,79.45
2022-09-23T00:48:42.628Z,79.71
2022-09-23T00:51:08.945Z,79.57
2022-09-23T00:53:35.269Z,79.41
2022-09-23T00:56:01.607Z,79.50
2022-09-23T00:58:27.944Z,79.63
2022-09-23T01:00:54.331Z,79.88
2022-09-23T01:03:20.594Z,80.69
2022-09-23T01:05:46.908Z,80.81
2022-09-23T01:08:13.249Z,81.21
2022-09-23T01:10:39.568Z,81.68
2022-09-23T01:13:05.907Z,81.70
2022-09-23T01:15:32.238Z,81.95
2022-09-23T01:17:58.558Z,81.79
2022-09-23T01:20:24.874Z,81.52
2022-09-23T01:22:51.221Z,81.33
2022-09-23T01:25:17.553Z,81.15
2022-09-23T01:27:43.873Z,81.29
2022-09-23T01:30:10.223Z,81.25
2022-09-23T01:32:36.559Z,81.31
2022-09-23T01:35:02.886Z,81.12
2022-09-23T01:37:29.197Z,80.77
2022-09-23T01:39:55.534Z,80.59
2022-09-23T01:42:21.854Z,80.63
2022-09-23T01:44:48.226Z,80.61
2022-09-23T01:47:14.560Z,80.54
2022-09-23T01:49:40.873Z,80.53
2022-09-23T01:52:07.239Z,80.83
2022-09-23T01:54:33.572Z,80.70
2022-09-23T01:56:59.890Z,80.87
2022-09-23T01:59:26.233Z,80.33
2022-09-23T02:01:52.611Z,80.16
2022-09-23T02:04:18.922Z,80.34
2022-09-23T02:06:45.249Z,80.35
2022-09-23T02:09:11.565Z,80.66
2022-09-23T02:11:37.906Z,80.70
2022-09-23T02:14:04.236Z,81.32
2022-09-23T02:16:30.629Z,81.58
2022-09-23T02:18:56.891Z,81.63
2022-09-23T02:21:23.213Z,81.72
2022-09-23T02:23:49.582Z,82.08
2022-09-23T02:26:15.898Z,82.04
2022-09-23T02:28:42.236Z,81.84
2022-09-23T02:31:08.587Z,81.75
2022-09-23T02:33:34.922Z,81.69
2022-09-23T02:36:01.259Z,81.56
2022-09-23T02:38:27.595Z,81.70
2022-09-23T02:40:53.998Z,81.98
2022-09-23T02:43:20.252Z,81.93
2022-09-23T02:45:46.595Z,81.81
2022-09-23T02:48:12.904Z,81.89
2022-09-23T02:50:39.241Z,81.86
2022-09-23T02:53:05.553Z,82.09
2022-09-23T02:55:31.896Z,82.45
2022-09-23T02:57:58.227Z,82.64
2022-09-23T03:00:24.598Z,82.86
2022-09-23T03:02:50.910Z,83.02
2022-09-23T03:05:17.231Z,83.35
2022-09-23T03:07:43.592Z,83.49
2022-09-23T03:10:09.934Z,83.31
2022-09-23T03:12:36.268Z,83.26
2022-09-23T03:15:02.591Z,83.50
2022-09-23T03:17:28.921Z,83.42
2022-09-23T03:19:55.262Z,83.44
2022-09-23T03:22:21.620Z,83.50
2022-09-23T03:24:51.850Z,83.62
2022-09-23T03:27:14.274Z,83.60
2022-09-23T03:29:40.633Z,83.69
2022-09-23T03:32:06.983Z,83.63
2022-09-23T03:34:33.265Z,83.55
2022-09-23T03:36:59.645Z,83.50
2022-09-23T03:39:25.963Z,83.56
2022-09-23T03:41:52.298Z,83.65
2022-09-23T03:44:18.666Z,83.62
2022-09-23T03:46:44.976Z,83.64
2022-09-23T03:49:11.320Z,83.62
2022-09-23T03:51:41.494Z,83.79
2022-09-23T03:54:03.998Z,83.92
2022-09-23T03:56:30.333Z,83.88
2022-09-23T03:58:56.673Z,83.81
2022-09-23T04:01:23.043Z,83.82
2022-09-23T04:03:49.344Z,83.77
2022-09-23T04:06:15.718Z,84.05
2022-09-23T04:08:42.056Z,84.46
2022-09-23T04:11:08.366Z,84.41
2022-09-23T04:13:34.711Z,84.63
2022-09-23T04:16:01.072Z,85.04
2022-09-23T04:18:27.368Z,85.12
2022-09-23T04:20:53.706Z,84.89
2022-09-23T04:23:20.061Z,84.68
2022-09-23T04:25:46.420Z,84.43
2022-09-23T04:28:12.759Z,84.33
2022-09-23T04:30:39.112Z,84.01
2022-09-23T04:33:05.425Z,83.79
2022-09-23T04:35:31.746Z,83.88
2022-09-23T04:37:58.102Z,83.75
2022-09-23T04:40:24.462Z,83.66
2022-09-23T04:42:50.762Z,83.41
2022-09-23T04:45:17.075Z,83.41
2022-09-23T04:47:43.416Z,83.51
2022-09-23T04:50:09.752Z,83.56
2022-09-23T04:52:36.103Z,83.51
2022-09-23T04:55:02.436Z,83.56
2022-09-23T04:57:28.755Z,83.72
2022-09-23T04:59:55.070Z,83.94
2022-09-23T05:02:21.455Z,83.91
2022-09-23T05:04:47.710Z,83.33
2022-09-23T05:07:14.086Z,82.81
2022-09-23T05:09:40.404Z,82.50
2022-09-23T05:12:06.741Z,82.18
2022-09-23T05:14:33.058Z,82.18
2022-09-23T05:16:59.378Z,81.38
2022-09-23T05:19:25.719Z,79.88
2022-09-23T05:21:52.061Z,78.66
2022-09-23T05:24:18.376Z,77.89
2022-09-23T05:26:44.764Z,77.46
2022-09-23T05:29:11.073Z,76.71
2022-09-23T05:31:37.432Z,76.13
2022-09-23T05:34:03.751Z,75.58
2022-09-23T05:36:34.328Z,75.37
2022-09-23T05:38:56.425Z,75.26
2022-09-23T05:41:22.746Z,75.16
2022-09-23T05:43:49.072Z,74.99
2022-09-23T05:46:15.478Z,74.67
2022-09-23T05:48:41.758Z,74.36
2022-09-23T05:51:08.072Z,73.72
2022-09-23T05:53:34.394Z,73.53
2022-09-23T05:56:00.773Z,73.53
2022-09-23T05:58:27.092Z,73.17
2022-09-23T06:00:53.414Z,72.72
2022-09-23T06:03:19.835Z,72.35
2022-09-23T06:05:46.104Z,71.78
2022-09-23T06:08:12.503Z,71.60
2022-09-23T06:10:38.831Z,71.32
2022-09-23T06:13:05.175Z,71.05
2022-09-23T06:15:31.491Z,70.81
2022-09-23T06:17:57.843Z,69.78
2022-09-23T06:20:24.186Z,69.85
2022-09-23T06:22:54.241Z,68.50
2022-09-23T06:25:16.826Z,68.43
2022-09-23T06:27:43.175Z,68.06
2022-09-23T06:30:09.488Z,67.00
2022-09-23T06:32:35.834Z,66.55
2022-09-23T06:35:02.170Z,66.73
2022-09-23T06:37:28.513Z,66.26
2022-09-23T06:39:54.830Z,66.88
2022-09-23T06:42:21.192Z,66.99
2022-09-23T06:44:47.505Z,67.29
2022-09-23T06:47:13.847Z,66.54
2022-09-23T06:49:40.191Z,66.56
2022-09-23T06:52:06.550Z,67.42
2022-09-23T06:54:32.892Z,67.22
2022-09-23T06:56:59.232Z,66.38
2022-09-23T06:59:25.550Z,65.10
2022-09-23T07:01:51.975Z,62.80
2022-09-23T07:04:18.236Z,60.16
2022-09-23T07:06:44.593Z,59.72
2022-09-23T07:09:10.909Z,58.32
2022-09-23T07:11:37.262Z,58.73
2022-09-23T07:14:03.600Z,58.06
2022-09-23T07:16:30.025Z,56.08
2022-09-23T07:18:56.301Z,58.33
2022-09-23T07:21:22.624Z,56.95
2022-09-23T07:23:48.952Z,54.21
2022-09-23T07:26:15.297Z,54.40
2022-09-23T07:28:41.615Z,54.65
2022-09-23T07:31:08.009Z,53.02
2022-09-23T07:33:34.291Z,52.03
2022-09-23T07:36:00.599Z,52.33
2022-09-23T07:38:26.969Z,53.34
2022-09-23T07:40:53.344Z,53.88
2022-09-23T07:43:19.607Z,54.62
2022-09-23T07:45:45.949Z,54.88
2022-09-23T07:48:12.268Z,54.22
2022-09-23T07:50:38.613Z,51.16
2022-09-23T07:53:04.951Z,51.69
2022-09-23T07:55:31.271Z,50.60
2022-09-23T07:57:57.641Z,52.27
2022-09-23T08:00:23.982Z,52.55
2022-09-23T08:02:52.955Z,52.22
2022-09-23T08:05:16.626Z,52.25
2022-09-23T08:07:42.944Z,51.57
2022-09-23T08:10:09.286Z,50.61
2022-09-23T08:12:35.659Z,50.12
2022-09-23T08:15:02.005Z,48.01
2022-09-23T08:17:28.343Z,46.52
2022-09-23T08:19:54.741Z,48.66
2022-09-23T08:22:21.049Z,50.48
2022-09-23T08:24:47.395Z,51.92
2022-09-23T08:27:13.773Z,50.77
2022-09-23T08:29:40.114Z,48.95
2022-09-23T08:32:06.447Z,46.48
2022-09-23T08:34:32.836Z,46.09
2022-09-23T08:36:59.161Z,44.78
2022-09-23T08:39:25.477Z,43.52
2022-09-23T08:41:56.101Z,44.45
2022-09-23T08:44:18.127Z,45.29
2022-09-23T08:46:44.470Z,45.30
2022-09-23T08:49:10.794Z,43.87
2022-09-23T08:51:37.190Z,43.90
2022-09-23T08:54:03.539Z,42.29
2022-09-23T08:56:29.885Z,43.24
2022-09-23T08:58:56.277Z,43.98
2022-09-23T09:01:22.682Z,42.48
2022-09-23T09:03:48.934Z,42.17
2022-09-23T09:06:15.279Z,42.20
2022-09-23T09:08:41.618Z,41.31
2022-09-23T09:11:08.969Z,40.63
2022-09-23T09:13:35.308Z,39.67
2022-09-23T09:16:01.646Z,39.67
2022-09-23T09:18:27.947Z,38.91
2022-09-23T09:20:54.272Z,40.27
2022-09-23T09:23:20.618Z,41.00
2022-09-23T09:25:46.933Z,40.36
2022-09-23T09:28:13.300Z,39.80
2022-09-23T09:30:39.701Z,38.66
2022-09-23T09:33:05.957Z,38.77
2022-09-23T09:35:32.308Z,38.05
2022-09-23T09:37:58.650Z,36.87
2022-09-23T09:40:25.047Z,36.69
2022-09-23T09:42:51.369Z,36.65
2022-09-23T09:45:19.723Z,36.44
2022-09-23T09:47:44.019Z,36.60
2022-09-23T09:50:10.393Z,36.01
2022-09-23T09:52:42.695Z,35.57
2022-09-23T09:55:09.007Z,34.73
2022-09-23T09:57:36.180Z,35.01
2022-09-23T10:00:01.672Z,34.77
2022-09-23T10:02:27.989Z,33.30
2022-09-23T10:04:54.326Z,33.07
2022-09-23T10:07:20.656Z,32.66
2022-09-23T10:09:46.970Z,33.12
2022-09-23T10:12:13.346Z,34.35
2022-09-23T10:14:39.682Z,35.04
2022-09-23T10:17:06.085Z,33.38
2022-09-23T10:19:32.389Z,33.37
2022-09-23T10:21:58.737Z,32.42
2022-09-23T10:24:25.050Z,31.51
2022-09-23T10:26:51.412Z,32.59
2022-09-23T10:29:17.732Z,32.39
2022-09-23T10:31:44.079Z,32.82
2022-09-23T10:34:10.451Z,32.12
2022-09-23T10:36:40.071Z,32.04
2022-09-23T10:39:03.171Z,32.34
2022-09-23T10:41:29.467Z,32.37
2022-09-23T10:43:55.781Z,32.99
2022-09-23T10:46:22.291Z,31.91
2022-09-23T10:48:48.505Z,32.73
2022-09-23T10:51:14.846Z,31.49
2022-09-23T10:53:41.194Z,31.69
2022-09-23T10:56:07.541Z,30.74
2022-09-23T10:58:33.883Z,30.89
2022-09-23T11:01:00.291Z,31.39
2022-09-23T11:03:26.535Z,30.51
2022-09-23T11:05:52.854Z,30.21
2022-09-23T11:08:19.208Z,30.15
2022-09-23T11:10:46.608Z,30.64
2022-09-23T11:13:11.852Z,29.68
2022-09-23T11:15:38.176Z,30.59
2022-09-23T11:18:04.498Z,30.89
2022-09-23T11:20:30.851Z,30.46
2022-09-23T11:22:57.168Z,30.72
2022-09-23T11:25:23.521Z,30.95
2022-09-23T11:27:49.891Z,31.15
2022-09-23T11:30:16.236Z,31.18
2022-09-23T11:32:42.551Z,30.97
2022-09-23T11:35:08.918Z,31.02
2022-09-23T11:37:35.213Z,30.66
2022-09-23T11:40:01.538Z,30.08
2022-09-23T11:42:27.859Z,30.36
2022-09-23T11:44:54.207Z,30.90
2022-09-23T11:47:20.540Z,30.56
2022-09-23T11:49:46.884Z,29.96
2022-09-23T11:52:13.220Z,30.34
2022-09-23T11:54:39.558Z,31.22
2022-09-23T11:57:05.877Z,32.04
2022-09-23T11:59:39.460Z,33.06
2022-09-23T12:02:01.812Z,34.77
2022-09-23T12:04:25.269Z,34.80
2022-09-23T12:06:51.196Z,36.52
2022-09-23T12:09:17.539Z,36.74
2022-09-23T12:11:43.887Z,37.28
2022-09-23T12:14:10.297Z,38.92
2022-09-23T12:16:36.634Z,40.34
2022-09-23T12:19:02.903Z,41.46
2022-09-23T12:21:49.166Z,41.72
2022-09-23T12:23:55.596Z,42.13
2022-09-23T12:26:21.924Z,42.01
2022-09-23T12:28:48.267Z,40.57
2022-09-23T12:31:14.703Z,40.31
2022-09-23T12:33:40.980Z,40.59
2022-09-23T12:36:07.292Z,40.71
2022-09-23T12:38:33.634Z,41.08
2022-09-23T12:40:59.958Z,41.27
2022-09-23T12:43:26.282Z,41.96
2022-09-23T12:45:52.666Z,40.53
2022-09-23T12:48:18.959Z,40.07
2022-09-23T12:50:45.283Z,40.97
2022-09-23T12:53:11.606Z,40.66
2022-09-23T12:55:37.950Z,40.80
2022-09-23T12:58:04.303Z,40.96
2022-09-23T13:00:34.243Z,41.20
2022-09-23T13:02:56.982Z,41.64
2022-09-23T13:05:23.358Z,41.53
2022-09-23T13:07:49.680Z,41.17
2022-09-23T13:10:16.001Z,41.03
2022-09-23T13:12:42.346Z,40.67
2022-09-23T13:15:08.682Z,40.83
2022-09-23T13:17:35.021Z,39.62
2022-09-23T13:20:01.364Z,39.81
2022-09-23T13:22:27.705Z,40.71
2022-09-23T13:24:54.048Z,40.30
2022-09-23T13:27:20.420Z,40.88
2022-09-23T13:29:46.738Z,40.59
2022-09-23T13:32:13.082Z,40.57
2022-09-23T13:34:39.396Z,40.49
2022-09-23T13:37:05.740Z,40.18
2022-09-23T13:39:32.077Z,39.82
2022-09-23T13:41:58.446Z,39.76
2022-09-23T13:44:24.760Z,39.85
2022-09-23T13:46:51.117Z,40.29
2022-09-23T13:49:17.485Z,40.24
2022-09-23T13:51:43.830Z,40.54
2022-09-23T13:54:10.207Z,40.67
2022-09-23T13:56:36.495Z,40.75
2022-09-23T13:59:02.834Z,40.99
2022-09-23T14:01:29.238Z,40.97
2022-09-23T14:03:55.532Z,41.25
2022-09-23T14:06:21.851Z,41.43
2022-09-23T14:08:48.172Z,41.38
2022-09-23T14:11:14.561Z,41.13
2022-09-23T14:13:40.897Z,40.91
2022-09-23T14:16:07.239Z,40.78
2022-09-23T14:18:33.566Z,40.78
2022-09-23T14:20:59.908Z,40.76
2022-09-23T14:23:26.246Z,40.95
2022-09-23T14:25:52.587Z,41.16
2022-09-23T14:28:18.929Z,41.34
2022-09-23T14:30:45.246Z,41.42
2022-09-23T14:33:11.587Z,41.86
2022-09-23T14:35:37.930Z,41.99
2022-09-23T14:38:04.243Z,41.98
2022-09-23T14:40:30.723Z,41.84
2022-09-23T14:42:56.973Z,40.89
2022-09-23T14:45:23.344Z,40.79
2022-09-23T14:47:49.650Z,41.75
2022-09-23T14:50:15.990Z,42.53
2022-09-23T14:52:42.304Z,42.38
2022-09-23T14:55:08.645Z,42.76
2022-09-23T14:57:34.982Z,42.99
2022-09-23T15:00:01.323Z,43.19
2022-09-23T15:02:27.678Z,43.50
2022-09-23T15:04:55.177Z,43.85
2022-09-23T15:07:20.346Z,43.87
2022-09-23T15:09:46.703Z,44.23
2022-09-23T15:12:13.044Z,44.49
2022-09-23T15:14:40.851Z,44.63
2022-09-23T15:17:05.702Z,44.91
2022-09-23T15:19:32.027Z,45.14
2022-09-23T15:21:58.366Z,45.41
2022-09-23T15:24:24.706Z,45.11
2022-09-23T15:26:51.028Z,45.41
2022-09-23T15:29:17.373Z,45.53
2022-09-23T15:31:43.788Z,45.66
2022-09-23T15:34:10.102Z,45.85
2022-09-23T15:36:36.387Z,45.23
2022-09-23T15:39:02.728Z,44.95
2022-09-23T15:41:29.043Z,45.07
2022-09-23T15:43:55.388Z,45.18
2022-09-23T15:46:21.781Z,45.29
2022-09-23T15:48:48.079Z,45.59
2022-09-23T15:51:14.412Z,45.61
2022-09-23T15:53:40.792Z,45.83
2022-09-23T15:56:07.107Z,45.85
2022-09-23T15:58:33.467Z,46.10
2022-09-23T16:00:59.895Z,46.37
2022-09-23T16:03:26.134Z,46.54
2022-09-23T16:05:52.448Z,46.79
2022-09-23T16:08:18.823Z,47.16
2022-09-23T16:10:45.136Z,47.24
2022-09-23T16:13:11.460Z,47.76
2022-09-23T16:15:37.786Z,48.28
2022-09-23T16:18:04.122Z,48.79
2022-09-23T16:20:30.439Z,49.15
2022-09-23T16:22:56.791Z,49.42
2022-09-23T16:25:23.138Z,49.73
2022-09-23T16:27:49.475Z,50.12
2022-09-23T16:30:15.876Z,50.16
2022-09-23T16:32:42.198Z,50.28
2022-09-23T16:35:08.560Z,50.30
2022-09-23T16:37:35.172Z,50.36
2022-09-23T16:40:01.214Z,50.32
2022-09-23T16:42:27.578Z,50.60
2022-09-23T16:44:53.891Z,50.66
2022-09-23T16:47:20.250Z,50.56
2022-09-23T16:49:46.604Z,50.48
2022-09-23T16:52:12.916Z,50.70
2022-09-23T16:54:39.291Z,50.88
2022-09-23T16:57:05.629Z,50.75
2022-09-23T16:59:31.968Z,50.88
2022-09-23T17:01:58.415Z,51.30
2022-09-23T17:04:24.701Z,51.26
2022-09-23T17:06:51.038Z,51.57
2022-09-23T17:09:17.416Z,52.08
2022-09-23T17:11:43.750Z,52.26
2022-09-23T17:14:10.070Z,52.31
2022-09-23T17:16:36.457Z,52.63
2022-09-23T17:19:02.809Z,53.07
2022-09-23T17:21:29.109Z,53.23
2022-09-23T17:23:55.489Z,53.43
2022-09-23T17:26:21.817Z,53.54
2022-09-23T17:28:48.157Z,53.98
2022-09-23T17:31:14.547Z,53.93
2022-09-23T17:33:40.846Z,53.99
2022-09-23T17:36:07.181Z,54.09
2022-09-23T17:38:33.541Z,54.14
2022-09-23T17:41:00.119Z,54.35
2022-09-23T17:43:26.217Z,54.04
2022-09-23T17:45:52.592Z,54.73
2022-09-23T17:48:18.909Z,54.59
2022-09-23T17:50:45.246Z,54.30
2022-09-23T17:53:11.598Z,54.33
2022-09-23T17:55:37.937Z,54.33
2022-09-23T17:58:04.280Z,54.46
2022-09-23T18:00:30.726Z,54.21
2022-09-23T18:02:56.949Z,54.09
2022-09-23T18:05:23.287Z,54.10
2022-09-23T18:07:49.609Z,54.29
2022-09-23T18:10:15.932Z,54.58
2022-09-23T18:12:42.274Z,55.01
2022-09-23T18:15:08.594Z,54.88
2022-09-23T18:17:34.972Z,54.94
2022-09-23T18:20:01.280Z,55.03
2022-09-23T18:22:27.632Z,55.20
2022-09-23T18:24:53.966Z,55.48
2022-09-23T18:27:20.310Z,55.81
2022-09-23T18:29:46.627Z,56.20
2022-09-23T18:32:14.311Z,56.33
2022-09-23T18:34:39.294Z,56.41
2022-09-23T18:37:15.007Z,56.81
2022-09-23T18:39:31.969Z,57.30
2022-09-23T18:41:58.291Z,56.99
2022-09-23T18:44:24.630Z,56.81
2022-09-23T18:46:50.958Z,57.00
2022-09-23T18:49:17.278Z,57.01
2022-09-23T18:51:43.602Z,57.35
2022-09-23T18:54:09.977Z,57.27
2022-09-23T18:56:36.270Z,57.25
2022-09-23T18:59:02.582Z,57.60
2022-09-23T19:01:29.028Z,57.96
2022-09-23T19:03:55.292Z,58.52
2022-09-23T19:06:21.626Z,58.68
2022-09-23T19:08:47.953Z,58.95
2022-09-23T19:11:14.277Z,59.28
2022-09-23T19:13:40.615Z,59.62
2022-09-23T19:16:06.977Z,59.94
2022-09-23T19:18:33.289Z,60.36
2022-09-23T19:21:01.556Z,60.52
2022-09-23T19:23:26.153Z,60.63
2022-09-23T19:25:52.498Z,60.53
2022-09-23T19:28:18.836Z,60.57
2022-09-23T19:30:45.192Z,60.69
2022-09-23T19:33:11.511Z,60.92
2022-09-23T19:35:37.834Z,61.01
2022-09-23T19:38:04.174Z,61.24
2022-09-23T19:40:30.564Z,61.81
2022-09-23T19:42:56.852Z,62.08
2022-09-23T19:45:23.204Z,62.34
2022-09-23T19:47:49.543Z,62.23
2022-09-23T19:50:15.887Z,61.97
2022-09-23T19:52:42.222Z,62.14
2022-09-23T19:55:08.571Z,62.30
2022-09-23T19:57:34.908Z,62.31
2022-09-23T20:00:01.248Z,62.56
2022-09-23T20:02:27.640Z,62.67
2022-09-23T20:04:53.924Z,62.63
2022-09-23T20:07:20.262Z,63.01
2022-09-23T20:09:46.612Z,64.00
2022-09-23T20:12:12.953Z,64.55
2022-09-23T20:14:39.273Z,64.72
2022-09-23T20:17:05.617Z,65.02
2022-09-23T20:19:31.937Z,65.44
2022-09-23T20:21:58.275Z,65.67
2022-09-23T20:24:24.598Z,66.11
2022-09-23T20:26:50.923Z,66.64
2022-09-23T20:29:17.260Z,67.10
2022-09-23T20:31:43.664Z,67.23
2022-09-23T20:34:09.987Z,67.58
2022-09-23T20:36:36.337Z,67.82
2022-09-23T20:39:02.633Z,68.12
2022-09-23T20:41:28.968Z,68.50
2022-09-23T20:43:55.315Z,68.85
2022-09-23T20:46:21.730Z,69.17
2022-09-23T20:48:48.036Z,69.25
2022-09-23T20:51:14.345Z,69.68
2022-09-23T20:53:40.731Z,69.97
2022-09-23T20:56:07.072Z,70.41
2022-09-23T20:58:33.394Z,70.96
2022-09-23T21:00:59.938Z,71.22
2022-09-23T21:03:26.117Z,71.37
2022-09-23T21:05:52.455Z,71.54
2022-09-23T21:08:18.801Z,71.62
2022-09-23T21:10:45.136Z,71.65
2022-09-23T21:13:11.460Z,71.53
2022-09-23T21:15:37.778Z,71.75
2022-09-23T21:18:04.123Z,71.87
2022-09-23T21:20:30.443Z,71.90
2022-09-23T21:22:56.765Z,72.20
2022-09-23T21:25:28.145Z,72.43
2022-09-23T21:27:49.407Z,72.36
2022-09-23T21:30:15.776Z,72.22
2022-09-23T21:32:42.114Z,72.26
2022-09-23T21:35:08.448Z,72.13
2022-09-23T21:37:34.805Z,72.13
2022-09-23T21:40:01.144Z,72.27
2022-09-23T21:42:27.462Z,72.24
2022-09-23T21:44:53.803Z,72.02
2022-09-23T21:47:20.173Z,72.05
2022-09-23T21:49:50.627Z,72.08
2022-09-23T21:52:12.812Z,72.06
2022-09-23T21:54:39.131Z,72.14
2022-09-23T21:57:05.473Z,72.33
2022-09-23T21:59:31.792Z,72.30
2022-09-23T22:01:58.117Z,72.46
2022-09-23T22:04:24.601Z,72.54
2022-09-23T22:06:50.798Z,72.54
2022-09-23T22:09:17.118Z,72.04
2022-09-23T22:11:43.459Z,71.93
2022-09-23T22:14:09.802Z,71.66
2022-09-23T22:16:36.170Z,71.63
2022-09-23T22:19:02.473Z,71.39
2022-09-23T22:21:28.821Z,71.40
2022-09-23T22:23:55.158Z,71.35
2022-09-23T22:26:21.481Z,71.75
2022-09-23T22:28:47.862Z,71.94
2022-09-23T22:31:14.233Z,72.18
2022-09-23T22:33:40.503Z,72.37
2022-09-23T22:36:06.896Z,72.42
2022-09-23T22:38:33.238Z,72.76
2022-09-23T22:40:59.619Z,72.87
2022-09-23T22:43:25.938Z,72.94
2022-09-23T22:45:52.283Z,72.80
2022-09-23T22:48:18.598Z,72.80
2022-09-23T22:50:44.970Z,72.75
2022-09-23T22:53:11.303Z,72.88
2022-09-23T22:55:37.623Z,72.72
2022-09-23T22:58:27.628Z,73.15
2022-09-23T23:00:30.268Z,73.45
2022-09-23T23:02:56.640Z,73.68
2022-09-23T23:05:22.978Z,73.68
2022-09-23T23:07:49.288Z,73.69
2022-09-23T23:10:15.614Z,74.00
2022-09-23T23:12:41.955Z,73.79
2022-09-23T23:15:08.294Z,73.65
2022-09-23T23:17:34.605Z,73.81
2022-09-23T23:20:00.944Z,74.15
2022-09-23T23:22:27.254Z,74.12
2022-09-23T23:24:53.608Z,74.31
2022-09-23T23:27:19.946Z,74.35
2022-09-23T23:29:46.278Z,74.48
2022-09-23T23:32:12.613Z,74.46
2022-09-23T23:34:38.933Z,74.10
2022-09-23T23:37:05.277Z,74.25
2022-09-23T23:39:31.598Z,74.62
2022-09-23T23:41:57.918Z,74.68
2022-09-23T23:44:24.271Z,74.71
2022-09-23T23:46:50.744Z,74.82
2022-09-23T23:49:16.945Z,74.42
2022-09-23T23:51:43.292Z,74.44
2022-09-23T23:54:09.630Z,74.22
2022-09-23T23:56:35.943Z,74.20
2022-09-23T23:59:02.320Z,74.36
